This is the latest recevied weather packets stored in our database for station/object K3PPP. If no packets are shown the sender has not sent any weather packets the latest 10 day(s).
| Time | Temp. | Humidity | Pressure | Rain* | Wind** | Luminosity | Snow |
|---|---|---|---|---|---|---|---|
| 1777840436 | 12.22° C | 39% | 1014.6 hPa | 0 mm | - | 546 W/m² | - |
| 1777840133 | 11.11° C | 42% | 1014.6 hPa | 0 mm | - | 573 W/m² | - |
| 1777839831 | 11.67° C | 42% | 1015 hPa | 0 mm | - | 165 W/m² | - |
| 1777839529 | 10.56° C | 42% | 1015.1 hPa | 0 mm | - | 685 W/m² | - |
| 1777839226 | 10.56° C | 43% | 1015.2 hPa | 0 mm | - | 165 W/m² | - |
| 1777838924 | 12.22° C | 40% | 1015.2 hPa | 0 mm | - | 628 W/m² | - |
| 1777838619 | 10.56° C | 44% | 1014.9 hPa | 0 mm | - | 694 W/m² | - |
| 1777838317 | 11.11° C | 41% | 1015 hPa | 0 mm | - | 177 W/m² | - |
| 1777838013 | 12.22° C | 40% | 1015.4 hPa | 0 mm | - | 714 W/m² | - |
| 1777837711 | 11.11° C | 43% | 1015.2 hPa | 0 mm | - | 695 W/m² | - |
| 1777837406 | 11.67° C | 42% | 1015.2 hPa | 0 mm | - | 223 W/m² | - |
| 1777837103 | 11.67° C | 43% | 1015.4 hPa | 0 mm | - | 716 W/m² | - |
| 1777836799 | 11.11° C | 39% | 1015.1 hPa | 0 mm | - | 724 W/m² | - |
| 1777836495 | 11.67° C | 41% | 1015.5 hPa | 0 mm | - | 630 W/m² | - |
| 1777836190 | 12.22° C | 40% | 1015.5 hPa | 0 mm | - | 750 W/m² | - |
| 1777835886 | 10.56° C | 41% | 1015.5 hPa | 0 mm | - | 794 W/m² | - |
| 1777835584 | 11.11° C | 42% | 1015.6 hPa | 0 mm | - | 228 W/m² | - |
| 1777835281 | 10.56° C | 41% | 1016 hPa | 0 mm | - | 787 W/m² | - |
| 1777834978 | 10.56° C | 40% | 1015.7 hPa | 0 mm | - | 315 W/m² | - |
| 1777834675 | 11.11° C | 41% | 1015.5 hPa | 0 mm | - | 788 W/m² | - |
| 1777834370 | 11.11° C | 41% | 1015.8 hPa | 0 mm | - | 802 W/m² | - |
| 1777834065 | 10° C | 43% | 1016 hPa | 0 mm | - | 792 W/m² | - |
| 1777833761 | 10° C | 44% | 1015.9 hPa | 0 mm | - | 350 W/m² | - |
| 1777833457 | 10° C | 43% | 1015.9 hPa | 0 mm | - | 157 W/m² | - |
| 1777833155 | 10.56° C | 43% | 1016 hPa | 0 mm | - | 792 W/m² | - |
* Rain latest hour (hover to see other rain measurements)
** Current wind speed in m/s (hover to see current wind gust speed)